Time;durP1;ratioP1;P1;durP2;ratioP2;P2;SDS_P1;SDS_P2;PMS_P1;PMS_P2;Temp;Humidity;BMP_temperature;BMP_pressure;BME280_temperature;BME280_humidity;BME280_pressure;Samples;Min_cycle;Max_cycle;Signal;HPM_P1;HPM_P2
2023/12/01 00:00:58;;;;;;;1.33;1.23;;;0.50;99.90;;;;;;4998709;28;20231;-87
2023/12/01 00:03:24;;;;;;;0.90;0.90;;;0.50;99.90;;;;;;5001104;28;20489;-86
2023/12/01 00:05:50;;;;;;;1.50;1.40;;;0.40;99.90;;;;;;5001014;28;20234;-87
2023/12/01 00:08:15;;;;;;;1.40;1.40;;;0.30;99.90;;;;;;5001069;28;20647;-86
2023/12/01 00:10:41;;;;;;;0.37;0.37;;;0.30;99.90;;;;;;4984481;28;20179;-87
2023/12/01 00:13:07;;;;;;;3.50;1.80;;;0.00;99.90;;;;;;4984839;28;20265;-86
2023/12/01 00:15:33;;;;;;;2.40;2.30;;;-0.10;99.90;;;;;;4984608;28;20203;-86
2023/12/01 00:17:59;;;;;;;1.50;1.43;;;-0.40;99.90;;;;;;4985258;28;20202;-86
2023/12/01 00:20:24;;;;;;;1.10;1.03;;;-0.50;99.90;;;;;;5001090;28;20179;-87
2023/12/01 00:22:51;;;;;;;2.77;2.67;;;-0.50;99.90;;;;;;5000697;28;20183;-86
2023/12/01 00:25:17;;;;;;;1.27;1.17;;;-0.50;99.90;;;;;;5016913;28;20182;-86
2023/12/01 00:27:43;;;;;;;1.37;1.37;;;-0.50;99.90;;;;;;4984208;28;20194;-87
2023/12/01 00:30:09;;;;;;;1.80;1.70;;;-0.30;99.90;;;;;;5016712;28;20193;-87
2023/12/01 00:32:35;;;;;;;1.80;0.87;;;-0.10;99.90;;;;;;5016630;28;20190;-87
2023/12/01 00:35:01;;;;;;;1.63;1.57;;;-0.20;99.90;;;;;;5001065;28;20214;-87
2023/12/01 00:37:27;;;;;;;0.30;0.30;;;-0.30;99.90;;;;;;4984385;28;20187;-87
2023/12/01 00:39:53;;;;;;;0.67;0.67;;;-0.20;99.90;;;;;;4983970;28;20639;-87
2023/12/01 00:42:18;;;;;;;1.00;0.97;;;-0.30;99.90;;;;;;5000790;28;20178;-87
2023/12/01 00:44:45;;;;;;;2.27;1.40;;;-0.70;99.90;;;;;;5000489;28;20234;-86
2023/12/01 00:47:11;;;;;;;0.93;0.93;;;-0.80;99.90;;;;;;4984851;28;20202;-87
2023/12/01 00:49:36;;;;;;;2.43;2.33;;;-0.80;99.90;;;;;;4999849;28;20557;-86
2023/12/01 00:52:04;;;;;;;1.07;0.93;;;-0.60;99.90;;;;;;5017005;28;20213;-86
2023/12/01 00:54:30;;;;;;;0.83;0.83;;;-0.60;99.90;;;;;;4984547;28;20182;-87
2023/12/01 00:56:55;;;;;;;1.97;1.87;;;-0.60;99.90;;;;;;5016593;28;20179;-87
2023/12/01 00:59:21;;;;;;;0.70;0.70;;;-0.70;99.90;;;;;;5000902;28;20210;-86
2023/12/01 01:01:47;;;;;;;3.03;2.83;;;-0.90;99.90;;;;;;4988099;28;20234;-87
2023/12/01 01:04:13;;;;;;;1.60;1.50;;;-0.80;99.90;;;;;;5016655;28;20572;-86
2023/12/01 01:06:39;;;;;;;1.07;1.07;;;-0.70;99.90;;;;;;5033229;28;20207;-87
2023/12/01 01:09:05;;;;;;;3.97;0.60;;;-0.50;99.90;;;;;;5016547;28;20270;-86
2023/12/01 01:11:30;;;;;;;1.93;1.83;;;-0.40;99.90;;;;;;5032421;28;20635;-86
2023/12/01 01:13:56;;;;;;;0.87;0.87;;;-0.40;99.90;;;;;;5032951;28;20256;-86
2023/12/01 01:16:22;;;;;;;3.90;1.37;;;-0.40;99.90;;;;;;5016671;28;20241;-87
2023/12/01 01:18:48;;;;;;;1.73;1.73;;;-0.30;99.90;;;;;;4999757;28;20206;-87
2023/12/01 01:21:14;;;;;;;2.83;1.17;;;-0.30;99.90;;;;;;5015965;28;20264;-87
2023/12/01 01:23:40;;;;;;;1.03;1.03;;;-0.30;99.90;;;;;;4999567;28;20673;-86
2023/12/01 01:26:07;;;;;;;0.43;0.43;;;-0.20;99.90;;;;;;5016176;28;20504;-87
2023/12/01 01:28:32;;;;;;;0.70;0.70;;;-0.20;99.90;;;;;;5032724;28;20210;-87
2023/12/01 01:30:58;;;;;;;0.53;0.53;;;-0.20;99.90;;;;;;5016075;28;20639;-86
2023/12/01 01:33:24;;;;;;;2.63;1.87;;;-0.20;99.90;;;;;;4999915;28;20178;-87
2023/12/01 01:35:50;;;;;;;1.63;1.53;;;0.00;99.90;;;;;;5015950;28;20216;-86
2023/12/01 01:38:15;;;;;;;0.47;0.47;;;0.10;99.90;;;;;;5032531;28;20178;-87
2023/12/01 01:40:42;;;;;;;1.93;1.90;;;0.10;99.90;;;;;;5032621;28;20202;-87
2023/12/01 01:43:08;;;;;;;1.43;1.43;;;0.00;99.90;;;;;;5031955;28;20262;-86
2023/12/01 01:45:34;;;;;;;0.80;0.73;;;0.00;99.90;;;;;;5015899;28;20282;-87
2023/12/01 01:48:00;;;;;;;1.60;0.90;;;0.00;99.90;;;;;;4999275;28;20546;-87
2023/12/01 01:50:26;;;;;;;2.90;2.70;;;0.00;99.90;;;;;;4999640;28;20183;-87
2023/12/01 01:52:54;;;;;;;0.40;0.40;;;0.00;99.90;;;;;;5032379;28;20197;-86
2023/12/01 01:55:19;;;;;;;2.30;2.20;;;-0.20;99.90;;;;;;5032224;28;20280;-87
2023/12/01 01:57:47;;;;;;;0.63;0.63;;;-0.50;99.90;;;;;;5019619;28;20273;-87
2023/12/01 02:00:17;;;;;;;1.17;1.07;;;-0.60;99.90;;;;;;5019692;28;20258;-87
2023/12/01 02:02:43;;;;;;;1.23;1.23;;;-0.80;99.90;;;;;;5037274;28;20226;-87
2023/12/01 02:05:13;;;;;;;1.47;1.47;;;-1.00;99.90;;;;;;5003887;28;20270;-86
2023/12/01 02:07:39;;;;;;;0.90;0.90;;;-1.20;99.90;;;;;;4987872;28;20209;-86
2023/12/01 02:10:06;;;;;;;2.40;2.23;;;-1.20;99.90;;;;;;5019574;28;20205;-85
2023/12/01 02:12:32;;;;;;;1.83;1.73;;;-1.10;99.90;;;;;;5019246;28;20217;-86
2023/12/01 02:14:58;;;;;;;0.30;0.30;;;-1.00;99.90;;;;;;5002870;28;20183;-87
2023/12/01 02:17:23;;;;;;;0.47;0.47;;;-1.40;99.90;;;;;;5003076;28;20179;-87
2023/12/01 02:19:51;;;;;;;2.13;2.03;;;-1.40;99.90;;;;;;5002789;28;20182;-85
2023/12/01 02:22:17;;;;;;;0.57;0.57;;;-1.60;99.90;;;;;;5003170;28;20190;-87
2023/12/01 02:24:43;;;;;;;0.70;0.70;;;-1.60;99.90;;;;;;5036335;28;20175;-86
2023/12/01 02:27:09;;;;;;;0.50;0.50;;;-1.60;99.90;;;;;;5018569;28;20701;-86
2023/12/01 02:29:34;;;;;;;2.00;1.90;;;-1.70;99.90;;;;;;5002826;28;20258;-86
2023/12/01 02:32:00;;;;;;;0.27;0.27;;;-1.80;99.90;;;;;;4985853;28;20603;-86
2023/12/01 02:34:26;;;;;;;0.80;0.80;;;-2.00;99.90;;;;;;4986007;28;20179;-86
2023/12/01 02:36:53;;;;;;;0.47;0.47;;;-2.00;99.90;;;;;;4986291;28;20191;-85
2023/12/01 02:39:19;;;;;;;1.47;1.47;;;-2.10;99.90;;;;;;4986654;28;20236;-87
2023/12/01 02:41:45;;;;;;;1.57;1.53;;;-1.90;99.90;;;;;;5036144;28;20206;-86
2023/12/01 02:44:11;;;;;;;2.77;2.67;;;-1.90;99.90;;;;;;4986051;28;20613;-86
2023/12/01 02:46:37;;;;;;;0.60;0.60;;;-2.00;99.90;;;;;;5001815;28;20696;-87
2023/12/01 02:49:03;;;;;;;0.73;0.73;;;-2.20;99.90;;;;;;5002771;28;20190;-87
2023/12/01 02:51:28;;;;;;;0.77;0.77;;;-2.30;99.90;;;;;;5002669;28;20187;-85
2023/12/01 02:53:54;;;;;;;0.40;0.40;;;-2.00;99.90;;;;;;5002582;28;20178;-86
2023/12/01 02:56:20;;;;;;;1.10;1.10;;;-1.80;99.90;;;;;;5018543;28;20626;-87
2023/12/01 02:58:45;;;;;;;0.30;0.30;;;-1.70;99.90;;;;;;5002162;28;20187;-86
2023/12/01 03:01:11;;;;;;;1.77;1.67;;;-1.60;99.90;;;;;;4985421;28;20619;-86
2023/12/01 03:03:37;;;;;;;4.93;1.60;;;-1.90;99.90;;;;;;5002018;28;20191;-86
2023/12/01 03:06:03;;;;;;;1.90;1.77;;;-2.30;99.90;;;;;;5002118;28;20238;-86
2023/12/01 03:08:39;;;;;;;1.37;1.37;;;-2.40;99.90;;;;;;5003672;28;20178;-87
2023/12/01 03:11:06;;;;;;;0.97;0.80;;;-2.60;99.90;;;;;;5018352;28;20266;-85
2023/12/01 03:13:32;;;;;;;0.90;0.80;;;-2.60;99.90;;;;;;5002419;28;20783;-86
2023/12/01 03:15:58;;;;;;;0.40;0.40;;;-2.60;99.90;;;;;;5002267;28;20183;-86
2023/12/01 03:18:24;;;;;;;1.50;1.40;;;-2.50;99.90;;;;;;4985404;28;20646;-86
2023/12/01 03:20:50;;;;;;;0.40;0.40;;;-2.50;99.90;;;;;;4985120;28;20187;-86
2023/12/01 03:23:15;;;;;;;2.30;2.20;;;-2.50;99.90;;;;;;5001909;28;20178;-86
2023/12/01 03:25:41;;;;;;;1.30;1.30;;;-2.70;99.90;;;;;;4985699;28;20210;-85
2023/12/01 03:28:07;;;;;;;0.20;0.20;;;-2.80;99.90;;;;;;4984921;28;20179;-86
2023/12/01 03:30:32;;;;;;;2.40;2.20;;;-3.10;99.90;;;;;;5035091;28;20225;-86
2023/12/01 03:32:58;;;;;;;0.20;0.20;;;-3.30;99.90;;;;;;5001193;28;20686;-86
2023/12/01 03:35:24;;;;;;;2.60;2.40;;;-3.30;99.90;;;;;;5017388;28;20183;-86
2023/12/01 03:37:57;;;;;;;0.20;0.20;;;-3.20;99.90;;;;;;5001427;28;20186;-86
2023/12/01 03:40:26;;;;;;;0.40;0.40;;;-3.40;99.90;;;;;;5001984;28;20171;-86
2023/12/01 03:42:52;;;;;;;0.30;0.30;;;-3.40;99.90;;;;;;5017642;28;20174;-86
2023/12/01 03:45:18;;;;;;;0.30;0.30;;;-3.40;99.90;;;;;;5017205;28;20189;-86
2023/12/01 03:47:45;;;;;;;0.20;0.20;;;-3.50;99.90;;;;;;5001015;28;20190;-86
2023/12/01 03:50:12;;;;;;;1.23;1.23;;;-3.80;99.90;;;;;;5017050;28;20182;-86
2023/12/01 03:52:43;;;;;;;0.23;0.23;;;-4.00;99.90;;;;;;5017250;28;20190;-86
2023/12/01 03:55:09;;;;;;;0.63;0.63;;;-4.00;99.90;;;;;;5017592;28;20167;-86
2023/12/01 03:57:36;;;;;;;0.40;0.40;;;-4.00;99.90;;;;;;4984769;28;20225;-86
2023/12/01 04:00:07;;;;;;;0.57;0.57;;;-3.80;99.90;;;;;;5034684;28;20619;-86
2023/12/01 04:02:36;;;;;;;0.50;0.50;;;-3.70;99.90;;;;;;5027614;28;20272;-86
2023/12/01 04:05:02;;;;;;;0.30;0.30;;;-3.70;99.90;;;;;;5017176;28;20186;-85
2023/12/01 04:07:28;;;;;;;0.60;0.60;;;-3.70;99.90;;;;;;5000650;28;20237;-85
2023/12/01 04:09:54;;;;;;;0.20;0.20;;;-3.60;99.90;;;;;;5016879;28;20633;-85
2023/12/01 04:12:20;;;;;;;2.63;0.87;;;-3.60;99.90;;;;;;5001208;28;20187;-86
2023/12/01 04:14:45;;;;;;;1.67;1.57;;;-3.70;99.90;;;;;;5033098;28;20580;-87
2023/12/01 04:17:13;;;;;;;0.20;0.20;;;-3.70;99.90;;;;;;5017492;28;20226;-86
2023/12/01 04:19:39;;;;;;;0.10;0.10;;;-4.00;99.90;;;;;;5033833;28;20194;-86
2023/12/01 04:22:05;;;;;;;0.20;0.20;;;-4.30;99.90;;;;;;5033191;28;20177;-86
2023/12/01 04:24:35;;;;;;;0.43;0.43;;;-4.60;99.90;;;;;;5016846;28;20228;-86
2023/12/01 04:27:02;;;;;;;0.20;0.20;;;-4.80;99.90;;;;;;5032812;28;20202;-85
2023/12/01 04:29:31;;;;;;;0.47;0.47;;;-5.00;99.90;;;;;;5016723;28;20205;-86
2023/12/01 04:31:57;;;;;;;0.37;0.37;;;-5.20;99.90;;;;;;5033029;28;20195;-86
2023/12/01 04:34:26;;;;;;;0.87;0.87;;;-5.30;99.90;;;;;;5033058;28;20619;-85
2023/12/01 04:36:53;;;;;;;0.13;0.13;;;-5.20;99.90;;;;;;5017280;28;20187;-86
2023/12/01 04:39:20;;;;;;;0.20;0.20;;;-5.20;99.90;;;;;;5033274;28;20626;-85
2023/12/01 04:41:48;;;;;;;0.20;0.20;;;-5.10;99.90;;;;;;5034165;28;20206;-86
2023/12/01 04:44:13;;;;;;;0.13;0.13;;;-5.20;99.90;;;;;;5033534;28;20265;-87
2023/12/01 04:46:39;;;;;;;0.20;0.20;;;-5.10;99.90;;;;;;5000123;28;20294;-86
2023/12/01 04:49:08;;;;;;;0.20;0.20;;;-5.00;99.90;;;;;;5016325;28;20187;-86
2023/12/01 04:51:36;;;;;;;0.60;0.60;;;-4.90;99.90;;;;;;5001145;28;20730;-86
2023/12/01 04:54:05;;;;;;;0.27;0.27;;;-4.90;99.90;;;;;;5032905;28;20221;-86
2023/12/01 04:56:31;;;;;;;0.10;0.10;;;-4.90;99.90;;;;;;5016663;28;20194;-86
2023/12/01 04:58:57;;;;;;;0.30;0.30;;;-4.90;99.90;;;;;;5016524;28;20178;-86
2023/12/01 05:01:23;;;;;;;0.20;0.20;;;-4.80;99.90;;;;;;5030124;28;20189;-86
2023/12/01 05:03:49;;;;;;;0.10;0.10;;;-4.90;99.90;;;;;;5000355;28;20269;-86
2023/12/01 05:06:14;;;;;;;0.10;0.10;;;-5.20;99.90;;;;;;4999878;28;20289;-86
2023/12/01 05:08:40;;;;;;;0.50;0.50;;;-5.40;99.90;;;;;;5000138;28;20187;-86
2023/12/01 05:11:06;;;;;;;0.20;0.20;;;-5.50;99.90;;;;;;5016379;28;20179;-86
2023/12/01 05:13:32;;;;;;;0.20;0.20;;;-5.50;99.90;;;;;;4999866;28;20183;-86
2023/12/01 05:15:57;;;;;;;0.40;0.40;;;-5.50;99.90;;;;;;4999643;28;20191;-85
2023/12/01 05:18:23;;;;;;;0.23;0.23;;;-5.60;99.90;;;;;;4983580;28;20175;-86
2023/12/01 05:20:49;;;;;;;0.13;0.13;;;-5.60;99.90;;;;;;5016069;28;20210;-86
2023/12/01 05:23:15;;;;;;;2.23;0.80;;;-5.70;99.90;;;;;;4983646;28;20183;-86
2023/12/01 05:25:42;;;;;;;0.30;0.30;;;-5.80;99.90;;;;;;4999795;28;20198;-86
2023/12/01 05:28:09;;;;;;;0.33;0.33;;;-5.90;99.90;;;;;;5000459;28;20206;-85
2023/12/01 05:30:38;;;;;;;0.83;0.83;;;-5.90;99.90;;;;;;5014987;28;20179;-86
2023/12/01 05:33:07;;;;;;;0.10;0.10;;;-5.90;99.90;;;;;;5033481;28;20171;-87
2023/12/01 05:35:35;;;;;;;1.37;0.73;;;-5.70;99.90;;;;;;5015947;28;20178;-86
2023/12/01 05:38:01;;;;;;;0.10;0.10;;;-5.70;99.90;;;;;;5033078;28;20635;-86
2023/12/01 05:40:35;;;;;;;0.10;0.10;;;-5.70;99.90;;;;;;5033477;28;20179;-86
2023/12/01 05:43:02;;;;;;;0.10;0.10;;;-5.50;99.90;;;;;;5033378;28;20182;-86
2023/12/01 05:45:32;;;;;;;0.20;0.20;;;-5.50;99.90;;;;;;4999355;28;20642;-85
2023/12/01 05:47:58;;;;;;;0.33;0.33;;;-5.70;99.90;;;;;;5015685;28;20186;-85
2023/12/01 05:50:25;;;;;;;0.20;0.20;;;-5.80;99.90;;;;;;4999840;28;20203;-86
2023/12/01 05:52:53;;;;;;;0.10;0.10;;;-5.90;99.90;;;;;;5015353;28;20619;-84
2023/12/01 05:55:23;;;;;;;4.27;1.23;;;-6.00;99.90;;;;;;4999377;28;20191;-86
2023/12/01 05:57:50;;;;;;;1.50;1.50;;;-5.00;99.90;;;;;;5015402;28;20661;-84
2023/12/01 06:00:30;;;;;;;0.33;0.33;;;-4.10;99.90;;;;;;5015631;28;20265;-85
2023/12/01 06:02:58;;;;;;;0.20;0.20;;;-3.90;99.90;;;;;;5008186;28;20222;-87
2023/12/01 06:05:24;;;;;;;0.10;0.10;;;-4.00;99.90;;;;;;5015815;28;20268;-87
2023/12/01 06:07:55;;;;;;;0.23;0.23;;;-4.50;99.90;;;;;;5031678;28;20175;-86
2023/12/01 06:10:22;;;;;;;1.20;1.20;;;-4.60;99.90;;;;;;5031232;28;20190;-85
2023/12/01 06:12:48;;;;;;;1.20;1.20;;;-4.70;99.90;;;;;;4999021;28;20182;-84
2023/12/01 06:15:16;;;;;;;0.30;0.30;;;-4.80;99.90;;;;;;5015022;28;20235;-85
2023/12/01 06:17:46;;;;;;;0.40;0.40;;;-4.80;99.90;;;;;;5016083;28;20183;-85
2023/12/01 06:20:20;;;;;;;0.20;0.20;;;-5.00;99.90;;;;;;5031347;28;20182;-85
2023/12/01 06:23:00;;;;;;;1.23;1.23;;;-4.90;99.90;;;;;;5031170;28;20171;-84
2023/12/01 06:25:31;;;;;;;0.70;0.70;;;-5.00;99.90;;;;;;5031274;28;20213;-84
2023/12/01 06:27:58;;;;;;;2.67;1.17;;;-4.90;99.90;;;;;;5032597;28;20215;-85
2023/12/01 06:30:25;;;;;;;0.10;0.10;;;-4.90;99.90;;;;;;5031302;28;20191;-84
2023/12/01 06:32:51;;;;;;;1.17;1.07;;;-5.00;99.90;;;;;;5030976;28;20183;-85
2023/12/01 06:35:21;;;;;;;0.10;0.10;;;-4.90;99.90;;;;;;5030927;28;20210;-86
2023/12/01 06:37:47;;;;;;;1.03;0.70;;;-4.80;99.90;;;;;;5032353;28;20262;-88
2023/12/01 06:40:17;;;;;;;0.67;0.67;;;-4.80;99.90;;;;;;5014289;28;20175;-86
2023/12/01 06:42:52;;;;;;;0.50;0.50;;;-4.90;99.90;;;;;;5017172;28;20220;-86
2023/12/01 06:45:23;;;;;;;1.37;1.27;;;-5.10;99.90;;;;;;5034613;28;20206;-87
2023/12/01 06:47:50;;;;;;;0.60;0.60;;;-5.40;99.90;;;;;;5034912;28;20209;-85
2023/12/01 06:50:21;;;;;;;0.20;0.20;;;-5.60;99.90;;;;;;5018281;28;20217;-85
2023/12/01 06:52:50;;;;;;;1.50;1.10;;;-5.70;99.90;;;;;;5035089;28;20174;-86
2023/12/01 06:55:16;;;;;;;0.50;0.50;;;-5.80;99.90;;;;;;5035017;28;20259;-85
2023/12/01 06:57:47;;;;;;;0.20;0.20;;;-5.90;99.90;;;;;;5002101;28;20197;-86
2023/12/01 07:02:56;;;;;;;2.13;1.03;;;-6.10;99.90;;;;;;5033973;28;20313;-86
2023/12/01 07:05:26;;;;;;;0.20;0.20;;;-6.10;99.90;;;;;;5018748;28;20581;-87
2023/12/01 07:07:53;;;;;;;0.30;0.30;;;-6.10;99.90;;;;;;5018310;28;20233;-87
2023/12/01 07:10:19;;;;;;;0.83;0.83;;;-6.20;99.90;;;;;;5018190;28;20185;-85
2023/12/01 07:12:45;;;;;;;0.20;0.20;;;-6.20;99.90;;;;;;5001546;28;20178;-86
2023/12/01 07:15:13;;;;;;;1.07;1.07;;;-6.20;99.90;;;;;;5001312;28;20543;-85
2023/12/01 07:17:39;;;;;;;0.10;0.10;;;-6.20;99.90;;;;;;5002348;28;20270;-86
2023/12/01 07:20:13;;;;;;;0.40;0.40;;;-6.20;99.90;;;;;;5017551;28;20179;-86
2023/12/01 07:22:40;;;;;;;2.10;1.17;;;-6.20;99.90;;;;;;5017325;28;20163;-82
2023/12/01 07:25:10;;;;;;;0.20;0.20;;;-6.30;99.90;;;;;;5017438;28;20258;-86
2023/12/01 07:27:39;;;;;;;1.03;1.03;;;-6.30;99.90;;;;;;5017823;28;20223;-86
2023/12/01 07:30:06;;;;;;;0.30;0.30;;;-6.10;99.90;;;;;;5035039;28;20174;-85
2023/12/01 07:32:33;;;;;;;0.17;0.17;;;-5.90;99.90;;;;;;5017201;28;20207;-86
2023/12/01 07:34:58;;;;;;;0.50;0.50;;;-5.70;99.90;;;;;;5017180;28;20558;-85
2023/12/01 07:37:24;;;;;;;0.27;0.27;;;-5.70;99.90;;;;;;5001188;28;20194;-84
2023/12/01 07:39:50;;;;;;;0.30;0.30;;;-5.80;99.90;;;;;;5000643;28;20545;-85
2023/12/01 07:42:16;;;;;;;0.63;0.63;;;-5.80;99.90;;;;;;5016767;28;20619;-85
2023/12/01 07:44:42;;;;;;;0.10;0.10;;;-5.80;99.90;;;;;;5017155;28;20179;-86
2023/12/01 07:47:11;;;;;;;0.83;0.83;;;-5.60;99.90;;;;;;4984509;28;20228;-84
2023/12/01 07:49:38;;;;;;;0.57;0.57;;;-5.50;99.90;;;;;;4985530;28;20193;-86
2023/12/01 07:52:06;;;;;;;0.10;0.10;;;-5.30;99.90;;;;;;5034691;28;20187;-85
2023/12/01 07:54:33;;;;;;;0.53;0.53;;;-5.20;99.90;;;;;;5000783;28;20222;-85
2023/12/01 07:56:59;;;;;;;1.70;1.70;;;-5.20;99.90;;;;;;5000630;28;20182;-83
2023/12/01 07:59:25;;;;;;;1.10;1.10;;;-5.10;99.90;;;;;;4984452;28;20183;-86
2023/12/01 08:01:51;;;;;;;0.53;0.53;;;-4.90;99.90;;;;;;4984285;28;20183;-85
2023/12/01 08:04:16;;;;;;;0.40;0.40;;;-4.50;99.90;;;;;;5017934;28;20187;-85
2023/12/01 08:06:42;;;;;;;0.30;0.30;;;-4.60;99.90;;;;;;5000453;28;20202;-85
2023/12/01 08:09:09;;;;;;;0.60;0.60;;;-4.40;99.90;;;;;;5000449;28;20194;-85
2023/12/01 08:11:36;;;;;;;0.50;0.50;;;-4.40;99.90;;;;;;5001108;28;20237;-85
2023/12/01 08:14:03;;;;;;;0.63;0.63;;;-4.80;99.90;;;;;;5000743;28;20197;-86
2023/12/01 08:16:29;;;;;;;0.30;0.30;;;-4.80;99.90;;;;;;4984405;28;20210;-84
2023/12/01 08:18:58;;;;;;;0.40;0.40;;;-4.80;99.90;;;;;;5034069;28;20197;-84
2023/12/01 08:21:24;;;;;;;1.80;1.80;;;-4.80;99.90;;;;;;5033572;28;20175;-86
2023/12/01 08:23:50;;;;;;;0.60;0.60;;;-4.50;99.90;;;;;;4999898;28;20265;-85
2023/12/01 08:26:15;;;;;;;1.83;1.77;;;-4.20;99.90;;;;;;4983692;28;20211;-86
2023/12/01 08:28:41;;;;;;;0.40;0.40;;;-4.10;99.90;;;;;;5034377;28;20210;-86
2023/12/01 08:31:07;;;;;;;0.50;0.50;;;-3.90;99.90;;;;;;5016801;28;20631;-86
2023/12/01 08:33:35;;;;;;;0.40;0.40;;;-3.90;99.90;;;;;;5000065;28;20661;-85
2023/12/01 08:36:01;;;;;;;0.77;0.77;;;-3.70;99.90;;;;;;5000622;28;20184;-86
2023/12/01 08:38:27;;;;;;;0.80;0.80;;;-3.80;99.90;;;;;;5033563;28;20182;-85
2023/12/01 08:40:53;;;;;;;0.50;0.50;;;-3.80;99.90;;;;;;5015957;28;20179;-85
2023/12/01 08:43:18;;;;;;;0.30;0.30;;;-3.80;99.90;;;;;;4999822;28;20187;-85
2023/12/01 08:45:44;;;;;;;1.50;0.93;;;-3.70;99.90;;;;;;5000133;28;20595;-85
2023/12/01 08:48:13;;;;;;;4.63;1.03;;;-3.70;99.90;;;;;;4999518;28;20630;-86
2023/12/01 08:50:39;;;;;;;2.13;2.03;;;-3.80;99.90;;;;;;5000287;28;20189;-86
2023/12/01 08:53:05;;;;;;;0.40;0.40;;;-3.80;99.90;;;;;;4999682;28;20345;-85
2023/12/01 08:55:31;;;;;;;1.13;1.13;;;-3.60;99.90;;;;;;4983338;28;20262;-85
2023/12/01 08:57:56;;;;;;;0.80;0.80;;;-3.40;99.90;;;;;;5015231;28;20206;-85
2023/12/01 09:00:23;;;;;;;0.13;0.13;;;-3.30;99.90;;;;;;5032791;28;20222;-84
2023/12/01 09:02:52;;;;;;;0.53;0.53;;;-3.30;99.90;;;;;;4989294;28;20227;-86
2023/12/01 09:05:18;;;;;;;1.60;1.50;;;-3.40;99.90;;;;;;5015379;28;20182;-85
2023/12/01 09:07:47;;;;;;;1.90;1.80;;;-3.40;99.90;;;;;;5033174;28;20213;-86
2023/12/01 09:10:13;;;;;;;2.00;1.90;;;-3.30;99.90;;;;;;5032977;28;20178;-86
2023/12/01 09:12:39;;;;;;;0.57;0.57;;;-3.30;99.90;;;;;;5032145;28;20312;-87
2023/12/01 09:15:06;;;;;;;0.20;0.20;;;-3.50;99.90;;;;;;4999734;28;20611;-86
2023/12/01 09:17:31;;;;;;;0.33;0.33;;;-3.50;99.90;;;;;;5032554;28;20179;-85
2023/12/01 09:19:57;;;;;;;0.77;0.77;;;-3.50;99.90;;;;;;4998873;28;20308;-84
2023/12/01 09:22:23;;;;;;;0.67;0.67;;;-3.30;99.90;;;;;;5032703;28;20240;-85
2023/12/01 09:24:48;;;;;;;0.80;0.80;;;-3.20;99.90;;;;;;4998595;28;20183;-83
2023/12/01 09:27:14;;;;;;;0.40;0.40;;;-3.10;99.90;;;;;;5014506;28;20585;-84
2023/12/01 09:29:40;;;;;;;3.07;2.87;;;-2.90;99.90;;;;;;4997995;28;20198;-84
2023/12/01 09:32:06;;;;;;;1.73;1.63;;;-2.70;99.90;;;;;;5015060;28;20186;-84
2023/12/01 09:34:31;;;;;;;0.40;0.40;;;-2.50;99.90;;;;;;5030789;28;20182;-84
2023/12/01 09:36:57;;;;;;;1.73;1.63;;;-2.40;99.90;;;;;;5014476;28;20194;-84
2023/12/01 09:39:23;;;;;;;1.60;1.50;;;-2.10;99.90;;;;;;4998588;28;20209;-84
2023/12/01 09:41:51;;;;;;;1.90;1.80;;;-2.20;99.90;;;;;;5014741;28;20615;-83
2023/12/01 09:44:16;;;;;;;0.70;0.70;;;-2.20;99.90;;;;;;5014687;28;20183;-83
2023/12/01 09:46:44;;;;;;;4.97;1.90;;;-2.20;99.90;;;;;;5030749;28;20217;-84
2023/12/01 09:49:10;;;;;;;1.73;1.60;;;-1.90;99.90;;;;;;5014445;28;20195;-82
2023/12/01 09:51:36;;;;;;;3.47;3.20;;;-1.90;99.90;;;;;;5014342;28;20636;-82
2023/12/01 09:54:03;;;;;;;0.30;0.30;;;-1.80;99.90;;;;;;5030545;28;20716;-83
2023/12/01 09:56:30;;;;;;;1.70;1.20;;;-2.00;99.90;;;;;;5031000;28;20186;-82
2023/12/01 09:58:56;;;;;;;2.33;2.23;;;-1.80;99.90;;;;;;5014158;28;20225;-83
2023/12/01 10:01:23;;;;;;;1.23;0.83;;;-1.70;99.90;;;;;;5030617;28;20187;-83
2023/12/01 10:03:49;;;;;;;1.00;1.00;;;-1.60;99.90;;;;;;5013956;28;20237;-82
2023/12/01 10:06:15;;;;;;;2.07;1.97;;;-1.40;99.90;;;;;;5031626;28;20218;-84
2023/12/01 10:08:41;;;;;;;2.93;1.73;;;-1.10;99.90;;;;;;5013993;28;20214;-83
2023/12/01 10:11:25;;;;;;;2.67;2.13;;;-1.10;99.90;;;;;;4997335;28;20215;-82
2023/12/01 10:13:51;;;;;;;2.27;2.00;;;-0.90;99.90;;;;;;5030381;28;20175;-82
2023/12/01 10:16:18;;;;;;;2.43;2.03;;;-0.80;99.90;;;;;;5015200;28;20649;-83
2023/12/01 10:19:05;;;;;;;3.90;2.23;;;-0.70;99.90;;;;;;5034795;28;20178;-84
2023/12/01 10:21:42;;;;;;;1.87;1.77;;;-0.70;99.90;;;;;;5034477;28;20189;-83
2023/12/01 10:24:21;;;;;;;1.30;1.20;;;-0.70;99.90;;;;;;5034651;28;20174;-83
2023/12/01 10:26:52;;;;;;;0.60;0.60;;;-0.60;99.90;;;;;;5034675;28;20202;-84
2023/12/01 10:29:32;;;;;;;1.17;1.17;;;-0.10;99.90;;;;;;5018704;28;20175;-83
2023/12/01 10:32:00;;;;;;;0.80;0.80;;;-0.20;99.90;;;;;;5035056;28;20622;-83
2023/12/01 10:34:26;;;;;;;2.00;1.70;;;-0.30;99.90;;;;;;5035245;28;20262;-85
2023/12/01 10:36:52;;;;;;;0.57;0.57;;;-0.20;99.90;;;;;;5017987;28;20210;-86
2023/12/01 10:39:27;;;;;;;4.07;2.30;;;-0.40;99.90;;;;;;5034432;28;20249;-86
2023/12/01 10:41:55;;;;;;;1.07;1.07;;;-0.20;99.90;;;;;;5034615;28;20162;-86
2023/12/01 10:44:27;;;;;;;8.60;4.63;;;-0.10;99.90;;;;;;5018422;28;20170;-88
2023/12/01 10:46:55;;;;;;;7.37;4.77;;;-0.40;99.90;;;;;;5034794;28;20211;-87
2023/12/01 10:49:22;;;;;;;2.10;1.83;;;-0.90;99.90;;;;;;5035504;28;20701;-86
2023/12/01 10:51:52;;;;;;;4.83;4.00;;;-0.80;99.90;;;;;;5034328;28;20179;-87
2023/12/01 10:54:24;;;;;;;2.57;2.03;;;-0.80;99.90;;;;;;5018053;28;20191;-87
2023/12/01 10:57:27;;;;;;;1.83;0.83;;;-0.50;99.90;;;;;;5018196;28;20202;-86
2023/12/01 10:59:58;;;;;;;2.23;2.13;;;-0.40;99.90;;;;;;5034078;28;20625;-89
2023/12/01 11:02:26;;;;;;;1.33;1.33;;;-0.20;99.90;;;;;;5024885;28;20246;-89
2023/12/01 11:04:52;;;;;;;1.63;1.53;;;-0.20;99.90;;;;;;4997695;28;20206;-86
2023/12/01 11:07:39;;;;;;;4.83;2.73;;;-0.10;99.90;;;;;;4981141;28;20238;-85
2023/12/01 11:10:11;;;;;;;1.30;1.07;;;0.10;99.90;;;;;;4997506;28;20175;-85
2023/12/01 11:12:58;;;;;;;2.03;1.93;;;-0.10;99.90;;;;;;5015042;28;20667;-85
2023/12/01 11:15:27;;;;;;;3.13;2.83;;;0.20;99.90;;;;;;4997691;28;20250;-85
2023/12/01 11:17:55;;;;;;;0.93;0.93;;;0.10;99.90;;;;;;5014780;28;20654;-86
2023/12/01 11:20:30;;;;;;;2.53;2.43;;;0.10;99.90;;;;;;4981268;28;20597;-86
2023/12/01 11:23:08;;;;;;;1.90;1.10;;;0.30;99.90;;;;;;4997531;28;20179;-86
2023/12/01 11:25:50;;;;;;;2.77;2.57;;;0.30;99.90;;;;;;4997735;28;20191;-87
2023/12/01 11:28:27;;;;;;;3.03;1.17;;;0.50;99.90;;;;;;4996284;28;20566;-86
2023/12/01 11:31:09;;;;;;;2.73;2.27;;;0.30;99.90;;;;;;5015203;28;20283;-87
2023/12/01 11:33:47;;;;;;;2.97;2.37;;;0.10;99.90;;;;;;5014769;28;20216;-87
2023/12/01 11:36:22;;;;;;;2.10;2.00;;;0.10;99.90;;;;;;5014357;28;20171;-86
2023/12/01 11:41:49;;;;;;;2.10;2.00;;;0.30;99.90;;;;;;5014095;28;20168;-86
2023/12/01 11:44:30;;;;;;;1.50;1.17;;;0.40;99.90;;;;;;4996778;28;20259;-86
2023/12/01 11:46:57;;;;;;;1.53;1.43;;;0.30;99.90;;;;;;4997140;28;20203;-85
2023/12/01 11:49:27;;;;;;;1.13;1.13;;;0.30;99.90;;;;;;4996245;28;20640;-87
2023/12/01 11:51:53;;;;;;;0.40;0.40;;;0.30;99.90;;;;;;4997422;28;20200;-87
2023/12/01 11:54:20;;;;;;;4.57;4.13;;;0.30;99.90;;;;;;4997379;28;20183;-87
2023/12/01 11:56:53;;;;;;;0.93;0.93;;;0.30;99.90;;;;;;4996609;28;20198;-85
2023/12/01 11:59:19;;;;;;;1.53;1.53;;;0.20;99.90;;;;;;4997198;28;20174;-88
2023/12/01 12:01:46;;;;;;;2.73;2.53;;;0.10;99.90;;;;;;4998049;28;20237;-88
2023/12/01 12:04:16;;;;;;;0.60;0.60;;;0.10;99.90;;;;;;4984176;28;20171;-88
2023/12/01 12:06:46;;;;;;;2.03;1.87;;;0.10;99.90;;;;;;5034578;28;20219;-88
2023/12/01 12:09:17;;;;;;;3.20;3.10;;;0.10;99.90;;;;;;5034157;28;20179;-88
2023/12/01 12:11:55;;;;;;;2.00;1.90;;;0.20;99.90;;;;;;5016460;28;20171;-89
2023/12/01 12:14:22;;;;;;;2.67;2.57;;;0.30;99.90;;;;;;5017030;28;20623;-90
2023/12/01 12:16:48;;;;;;;2.30;1.53;;;0.50;99.90;;;;;;5001478;28;20187;-89
2023/12/01 12:19:14;;;;;;;3.50;2.70;;;0.30;99.90;;;;;;5034540;28;20175;-90
2023/12/01 12:21:40;;;;;;;1.30;1.30;;;0.30;99.90;;;;;;5000814;28;20224;-91
2023/12/01 12:24:06;;;;;;;0.60;0.60;;;0.40;99.90;;;;;;5017081;28;20629;-89
2023/12/01 12:26:32;;;;;;;3.33;2.30;;;0.40;99.90;;;;;;5000665;28;20221;-90
2023/12/01 12:28:58;;;;;;;1.60;1.37;;;0.10;99.90;;;;;;5001274;28;20186;-89
2023/12/01 12:31:29;;;;;;;0.80;0.80;;;0.10;99.90;;;;;;5034155;28;20186;-87
2023/12/01 12:33:56;;;;;;;3.30;1.40;;;0.00;99.90;;;;;;5016796;28;20602;-87
2023/12/01 12:36:23;;;;;;;1.33;1.23;;;0.00;99.90;;;;;;5034255;28;20182;-87
2023/12/01 12:38:50;;;;;;;2.43;2.33;;;-0.10;99.90;;;;;;5000437;28;20189;-84
2023/12/01 12:41:28;;;;;;;4.03;2.23;;;0.10;99.90;;;;;;5016270;28;20171;-87
2023/12/01 12:44:05;;;;;;;2.77;1.87;;;0.20;99.90;;;;;;5016211;28;20182;-88
2023/12/01 12:46:32;;;;;;;1.80;1.73;;;0.40;99.90;;;;;;5016992;28;20553;-88
2023/12/01 12:49:09;;;;;;;0.90;0.90;;;0.90;99.90;;;;;;5000892;28;20652;-88
2023/12/01 12:51:36;;;;;;;1.70;1.37;;;1.20;99.90;;;;;;5016394;28;20174;-88
2023/12/01 12:54:03;;;;;;;1.20;1.20;;;1.20;99.90;;;;;;5000351;28;20186;-87
2023/12/01 12:56:29;;;;;;;3.23;3.03;;;1.50;99.90;;;;;;5016056;28;20203;-88